sensor_id;sensor_type;location;lat;lon;timestamp;temperature;humidity
44047;DHT22;29713;-33.888;151.150;2023-07-31T00:01:35;18.80;99.90
44047;DHT22;29713;-33.888;151.150;2023-07-31T00:04:02;18.80;99.90
44047;DHT22;29713;-33.888;151.150;2023-07-31T00:06:30;18.80;99.90
44047;DHT22;29713;-33.888;151.150;2023-07-31T00:08:57;19.00;99.90
44047;DHT22;29713;-33.888;151.150;2023-07-31T00:11:24;19.10;99.90
44047;DHT22;29713;-33.888;151.150;2023-07-31T00:13:53;19.20;99.90
44047;DHT22;29713;-33.888;151.150;2023-07-31T00:16:20;19.30;99.90
44047;DHT22;29713;-33.888;151.150;2023-07-31T00:18:51;19.40;99.90
44047;DHT22;29713;-33.888;151.150;2023-07-31T00:21:18;19.50;99.90
44047;DHT22;29713;-33.888;151.150;2023-07-31T00:23:45;19.50;99.90
44047;DHT22;29713;-33.888;151.150;2023-07-31T00:26:12;19.60;99.90
44047;DHT22;29713;-33.888;151.150;2023-07-31T00:28:40;19.70;99.90
44047;DHT22;29713;-33.888;151.150;2023-07-31T00:31:07;19.80;99.90
44047;DHT22;29713;-33.888;151.150;2023-07-31T00:33:35;19.90;99.90
44047;DHT22;29713;-33.888;151.150;2023-07-31T00:36:03;20.00;99.90
44047;DHT22;29713;-33.888;151.150;2023-07-31T00:38:30;20.10;99.90
44047;DHT22;29713;-33.888;151.150;2023-07-31T00:40:59;20.20;99.90
44047;DHT22;29713;-33.888;151.150;2023-07-31T00:43:26;20.30;99.90
44047;DHT22;29713;-33.888;151.150;2023-07-31T00:45:57;20.30;99.90
44047;DHT22;29713;-33.888;151.150;2023-07-31T00:48:24;20.40;99.90
44047;DHT22;29713;-33.888;151.150;2023-07-31T00:50:52;20.50;99.90
44047;DHT22;29713;-33.888;151.150;2023-07-31T00:53:19;20.50;99.90
44047;DHT22;29713;-33.888;151.150;2023-07-31T00:55:47;20.60;99.90
44047;DHT22;29713;-33.888;151.150;2023-07-31T00:58:14;20.50;99.90
44047;DHT22;29713;-33.888;151.150;2023-07-31T01:00:41;20.50;99.90
44047;DHT22;29713;-33.888;151.150;2023-07-31T01:03:09;20.60;99.90
44047;DHT22;29713;-33.888;151.150;2023-07-31T01:08:18;20.80;99.90
44047;DHT22;29713;-33.888;151.150;2023-07-31T01:11:04;21.00;99.90
44047;DHT22;29713;-33.888;151.150;2023-07-31T01:13:34;21.10;99.90
44047;DHT22;29713;-33.888;151.150;2023-07-31T01:16:02;21.20;99.90
44047;DHT22;29713;-33.888;151.150;2023-07-31T01:18:29;21.20;99.90
44047;DHT22;29713;-33.888;151.150;2023-07-31T01:21:03;21.40;99.90
44047;DHT22;29713;-33.888;151.150;2023-07-31T01:26:19;21.30;99.90
44047;DHT22;29713;-33.888;151.150;2023-07-31T01:29:03;21.40;99.90
44047;DHT22;29713;-33.888;151.150;2023-07-31T01:31:34;21.40;99.90
44047;DHT22;29713;-33.888;151.150;2023-07-31T01:34:02;21.60;99.90
44047;DHT22;29713;-33.888;151.150;2023-07-31T01:36:31;21.90;99.90
44047;DHT22;29713;-33.888;151.150;2023-07-31T01:39:00;22.20;99.90
44047;DHT22;29713;-33.888;151.150;2023-07-31T01:41:30;22.30;99.90
44047;DHT22;29713;-33.888;151.150;2023-07-31T01:43:58;22.40;99.90
44047;DHT22;29713;-33.888;151.150;2023-07-31T01:46:25;22.40;99.90
44047;DHT22;29713;-33.888;151.150;2023-07-31T01:48:56;22.40;99.90
44047;DHT22;29713;-33.888;151.150;2023-07-31T01:51:23;22.70;99.90
44047;DHT22;29713;-33.888;151.150;2023-07-31T01:53:50;23.00;99.90
44047;DHT22;29713;-33.888;151.150;2023-07-31T01:56:18;23.00;99.70
44047;DHT22;29713;-33.888;151.150;2023-07-31T01:58:45;23.20;99.30
44047;DHT22;29713;-33.888;151.150;2023-07-31T02:01:12;23.60;98.70
44047;DHT22;29713;-33.888;151.150;2023-07-31T02:03:40;23.90;97.80
44047;DHT22;29713;-33.888;151.150;2023-07-31T02:06:08;24.10;97.60
44047;DHT22;29713;-33.888;151.150;2023-07-31T02:08:36;24.20;96.80
44047;DHT22;29713;-33.888;151.150;2023-07-31T02:11:03;24.20;96.30
44047;DHT22;29713;-33.888;151.150;2023-07-31T02:13:31;24.40;96.50
44047;DHT22;29713;-33.888;151.150;2023-07-31T02:16:01;24.90;95.00
44047;DHT22;29713;-33.888;151.150;2023-07-31T02:18:28;25.00;94.70
44047;DHT22;29713;-33.888;151.150;2023-07-31T02:20:59;25.20;93.60
44047;DHT22;29713;-33.888;151.150;2023-07-31T02:23:26;25.50;93.70
44047;DHT22;29713;-33.888;151.150;2023-07-31T02:25:53;25.50;92.80
44047;DHT22;29713;-33.888;151.150;2023-07-31T02:28:21;25.80;92.30
44047;DHT22;29713;-33.888;151.150;2023-07-31T02:30:49;26.10;91.40
44047;DHT22;29713;-33.888;151.150;2023-07-31T02:33:17;26.30;91.10
44047;DHT22;29713;-33.888;151.150;2023-07-31T02:35:44;26.50;90.10
44047;DHT22;29713;-33.888;151.150;2023-07-31T02:38:11;27.10;88.90
44047;DHT22;29713;-33.888;151.150;2023-07-31T02:40:40;27.20;87.10
44047;DHT22;29713;-33.888;151.150;2023-07-31T02:43:10;27.40;84.80
44047;DHT22;29713;-33.888;151.150;2023-07-31T02:45:37;27.30;83.30
44047;DHT22;29713;-33.888;151.150;2023-07-31T02:48:08;27.40;82.40
44047;DHT22;29713;-33.888;151.150;2023-07-31T02:50:35;27.40;80.30
44047;DHT22;29713;-33.888;151.150;2023-07-31T02:53:02;26.90;80.50
44047;DHT22;29713;-33.888;151.150;2023-07-31T02:55:30;27.10;81.50
44047;DHT22;29713;-33.888;151.150;2023-07-31T02:57:57;27.10;79.20
44047;DHT22;29713;-33.888;151.150;2023-07-31T03:00:25;27.00;80.00
44047;DHT22;29713;-33.888;151.150;2023-07-31T03:02:52;26.80;79.60
44047;DHT22;29713;-33.888;151.150;2023-07-31T03:05:20;27.00;78.70
44047;DHT22;29713;-33.888;151.150;2023-07-31T03:07:47;27.10;78.30
44047;DHT22;29713;-33.888;151.150;2023-07-31T03:10:14;27.30;77.40
44047;DHT22;29713;-33.888;151.150;2023-07-31T03:12:42;27.50;76.80
44047;DHT22;29713;-33.888;151.150;2023-07-31T03:15:10;27.80;76.60
44047;DHT22;29713;-33.888;151.150;2023-07-31T03:17:37;28.10;75.40
44047;DHT22;29713;-33.888;151.150;2023-07-31T03:20:05;27.90;74.70
44047;DHT22;29713;-33.888;151.150;2023-07-31T03:22:32;28.10;74.30
44047;DHT22;29713;-33.888;151.150;2023-07-31T03:25:05;27.80;73.00
44047;DHT22;29713;-33.888;151.150;2023-07-31T03:27:32;27.70;73.00
44047;DHT22;29713;-33.888;151.150;2023-07-31T03:30:00;27.70;72.40
44047;DHT22;29713;-33.888;151.150;2023-07-31T03:32:27;27.60;72.50
44047;DHT22;29713;-33.888;151.150;2023-07-31T03:34:54;27.50;73.10
44047;DHT22;29713;-33.888;151.150;2023-07-31T03:37:25;28.00;70.80
44047;DHT22;29713;-33.888;151.150;2023-07-31T03:39:53;28.30;70.00
44047;DHT22;29713;-33.888;151.150;2023-07-31T03:42:20;28.20;70.40
44047;DHT22;29713;-33.888;151.150;2023-07-31T03:44:47;27.90;69.10
44047;DHT22;29713;-33.888;151.150;2023-07-31T03:47:15;27.90;69.70
44047;DHT22;29713;-33.888;151.150;2023-07-31T03:49:42;28.00;70.00
44047;DHT22;29713;-33.888;151.150;2023-07-31T03:52:09;28.00;69.40
44047;DHT22;29713;-33.888;151.150;2023-07-31T03:54:37;28.20;69.00
44047;DHT22;29713;-33.888;151.150;2023-07-31T03:57:04;28.20;68.90
44047;DHT22;29713;-33.888;151.150;2023-07-31T03:59:32;27.70;67.20
44047;DHT22;29713;-33.888;151.150;2023-07-31T04:01:59;27.70;67.30
44047;DHT22;29713;-33.888;151.150;2023-07-31T04:04:26;27.60;66.80
44047;DHT22;29713;-33.888;151.150;2023-07-31T04:06:53;27.50;68.50
44047;DHT22;29713;-33.888;151.150;2023-07-31T04:09:21;27.80;67.50
44047;DHT22;29713;-33.888;151.150;2023-07-31T04:11:48;27.90;67.70
44047;DHT22;29713;-33.888;151.150;2023-07-31T04:14:15;27.90;68.00
44047;DHT22;29713;-33.888;151.150;2023-07-31T04:16:43;28.00;67.10
44047;DHT22;29713;-33.888;151.150;2023-07-31T04:19:10;28.20;67.20
44047;DHT22;29713;-33.888;151.150;2023-07-31T04:21:37;28.30;66.60
44047;DHT22;29713;-33.888;151.150;2023-07-31T04:24:05;28.00;66.40
44047;DHT22;29713;-33.888;151.150;2023-07-31T04:26:32;27.80;68.10
44047;DHT22;29713;-33.888;151.150;2023-07-31T04:28:59;28.00;68.20
44047;DHT22;29713;-33.888;151.150;2023-07-31T04:31:27;28.00;67.60
44047;DHT22;29713;-33.888;151.150;2023-07-31T04:33:54;27.80;67.30
44047;DHT22;29713;-33.888;151.150;2023-07-31T04:36:21;27.90;68.80
44047;DHT22;29713;-33.888;151.150;2023-07-31T04:38:49;28.10;68.50
44047;DHT22;29713;-33.888;151.150;2023-07-31T04:41:16;28.20;66.10
44047;DHT22;29713;-33.888;151.150;2023-07-31T04:43:43;27.80;65.70
44047;DHT22;29713;-33.888;151.150;2023-07-31T04:46:10;27.60;66.50
44047;DHT22;29713;-33.888;151.150;2023-07-31T04:48:38;27.50;67.30
44047;DHT22;29713;-33.888;151.150;2023-07-31T04:51:05;27.30;67.40
44047;DHT22;29713;-33.888;151.150;2023-07-31T04:53:33;26.90;67.60
44047;DHT22;29713;-33.888;151.150;2023-07-31T04:56:00;26.20;68.10
44047;DHT22;29713;-33.888;151.150;2023-07-31T04:58:27;25.80;68.50
44047;DHT22;29713;-33.888;151.150;2023-07-31T05:00:55;25.70;68.60
44047;DHT22;29713;-33.888;151.150;2023-07-31T05:03:22;25.50;68.80
44047;DHT22;29713;-33.888;151.150;2023-07-31T05:05:50;25.50;69.00
44047;DHT22;29713;-33.888;151.150;2023-07-31T05:08:21;25.20;69.10
44047;DHT22;29713;-33.888;151.150;2023-07-31T05:10:48;25.00;69.70
44047;DHT22;29713;-33.888;151.150;2023-07-31T05:13:15;24.80;69.60
44047;DHT22;29713;-33.888;151.150;2023-07-31T05:15:42;24.50;70.30
44047;DHT22;29713;-33.888;151.150;2023-07-31T05:18:10;24.40;72.10
44047;DHT22;29713;-33.888;151.150;2023-07-31T05:20:37;24.40;72.70
44047;DHT22;29713;-33.888;151.150;2023-07-31T05:23:04;24.30;72.70
44047;DHT22;29713;-33.888;151.150;2023-07-31T05:25:31;24.10;72.30
44047;DHT22;29713;-33.888;151.150;2023-07-31T05:27:59;23.90;72.10
44047;DHT22;29713;-33.888;151.150;2023-07-31T05:30:26;23.70;72.90
44047;DHT22;29713;-33.888;151.150;2023-07-31T05:32:54;23.60;73.60
44047;DHT22;29713;-33.888;151.150;2023-07-31T05:35:21;23.50;73.30
44047;DHT22;29713;-33.888;151.150;2023-07-31T05:37:48;23.40;73.30
44047;DHT22;29713;-33.888;151.150;2023-07-31T05:40:16;23.40;73.80
44047;DHT22;29713;-33.888;151.150;2023-07-31T05:42:43;23.30;74.80
44047;DHT22;29713;-33.888;151.150;2023-07-31T05:45:16;23.20;74.80
44047;DHT22;29713;-33.888;151.150;2023-07-31T05:47:43;23.10;75.20
44047;DHT22;29713;-33.888;151.150;2023-07-31T05:50:11;23.10;75.90
44047;DHT22;29713;-33.888;151.150;2023-07-31T05:52:38;23.10;77.00
44047;DHT22;29713;-33.888;151.150;2023-07-31T05:55:05;23.10;77.00
44047;DHT22;29713;-33.888;151.150;2023-07-31T05:57:34;23.10;77.20
44047;DHT22;29713;-33.888;151.150;2023-07-31T06:00:03;23.10;77.00
44047;DHT22;29713;-33.888;151.150;2023-07-31T06:02:30;23.00;76.20
44047;DHT22;29713;-33.888;151.150;2023-07-31T06:04:59;22.90;76.10
44047;DHT22;29713;-33.888;151.150;2023-07-31T06:07:27;22.70;76.70
44047;DHT22;29713;-33.888;151.150;2023-07-31T06:09:55;22.70;77.50
44047;DHT22;29713;-33.888;151.150;2023-07-31T06:12:24;22.60;78.00
44047;DHT22;29713;-33.888;151.150;2023-07-31T06:14:51;22.50;78.50
44047;DHT22;29713;-33.888;151.150;2023-07-31T06:17:19;22.50;78.90
44047;DHT22;29713;-33.888;151.150;2023-07-31T06:19:48;22.40;79.20
44047;DHT22;29713;-33.888;151.150;2023-07-31T06:22:16;22.30;78.30
44047;DHT22;29713;-33.888;151.150;2023-07-31T06:24:44;22.30;78.50
44047;DHT22;29713;-33.888;151.150;2023-07-31T06:27:12;22.20;79.00
44047;DHT22;29713;-33.888;151.150;2023-07-31T06:29:39;22.20;79.80
44047;DHT22;29713;-33.888;151.150;2023-07-31T06:32:07;22.10;80.20
44047;DHT22;29713;-33.888;151.150;2023-07-31T06:34:35;22.10;80.40
44047;DHT22;29713;-33.888;151.150;2023-07-31T06:37:02;22.10;79.50
44047;DHT22;29713;-33.888;151.150;2023-07-31T06:39:29;22.00;80.40
44047;DHT22;29713;-33.888;151.150;2023-07-31T06:41:57;22.00;80.60
44047;DHT22;29713;-33.888;151.150;2023-07-31T06:44:24;21.90;81.00
44047;DHT22;29713;-33.888;151.150;2023-07-31T06:46:51;21.90;81.60
44047;DHT22;29713;-33.888;151.150;2023-07-31T06:49:19;21.80;82.20
44047;DHT22;29713;-33.888;151.150;2023-07-31T06:51:46;21.80;82.20
44047;DHT22;29713;-33.888;151.150;2023-07-31T06:54:13;21.70;82.50
44047;DHT22;29713;-33.888;151.150;2023-07-31T06:56:41;21.60;83.10
44047;DHT22;29713;-33.888;151.150;2023-07-31T06:59:08;21.60;83.80
44047;DHT22;29713;-33.888;151.150;2023-07-31T07:01:35;21.50;85.10
44047;DHT22;29713;-33.888;151.150;2023-07-31T07:04:03;21.50;86.40
44047;DHT22;29713;-33.888;151.150;2023-07-31T07:06:30;21.40;88.70
44047;DHT22;29713;-33.888;151.150;2023-07-31T07:08:57;21.30;90.20
44047;DHT22;29713;-33.888;151.150;2023-07-31T07:11:25;21.30;91.20
44047;DHT22;29713;-33.888;151.150;2023-07-31T07:13:52;21.20;92.40
44047;DHT22;29713;-33.888;151.150;2023-07-31T07:16:19;21.10;93.40
44047;DHT22;29713;-33.888;151.150;2023-07-31T07:18:47;21.00;94.30
44047;DHT22;29713;-33.888;151.150;2023-07-31T07:21:14;20.90;96.00
44047;DHT22;29713;-33.888;151.150;2023-07-31T07:23:44;20.80;96.90
44047;DHT22;29713;-33.888;151.150;2023-07-31T07:26:12;20.70;97.70
44047;DHT22;29713;-33.888;151.150;2023-07-31T07:28:39;20.60;98.20
44047;DHT22;29713;-33.888;151.150;2023-07-31T07:31:06;20.50;99.30
44047;DHT22;29713;-33.888;151.150;2023-07-31T07:33:34;20.40;99.90
44047;DHT22;29713;-33.888;151.150;2023-07-31T07:36:02;20.30;99.90
44047;DHT22;29713;-33.888;151.150;2023-07-31T07:38:29;20.20;99.90
44047;DHT22;29713;-33.888;151.150;2023-07-31T07:40:57;20.10;99.90
44047;DHT22;29713;-33.888;151.150;2023-07-31T07:43:24;20.00;99.90
44047;DHT22;29713;-33.888;151.150;2023-07-31T07:45:51;19.90;99.90
44047;DHT22;29713;-33.888;151.150;2023-07-31T07:48:19;19.80;99.90
44047;DHT22;29713;-33.888;151.150;2023-07-31T07:50:47;19.80;99.90
44047;DHT22;29713;-33.888;151.150;2023-07-31T07:53:18;19.70;99.90
44047;DHT22;29713;-33.888;151.150;2023-07-31T07:55:45;19.60;99.90
44047;DHT22;29713;-33.888;151.150;2023-07-31T07:58:13;19.40;99.90
44047;DHT22;29713;-33.888;151.150;2023-07-31T08:00:40;19.40;99.90
44047;DHT22;29713;-33.888;151.150;2023-07-31T08:03:07;19.30;99.90
44047;DHT22;29713;-33.888;151.150;2023-07-31T08:05:36;19.20;99.90
44047;DHT22;29713;-33.888;151.150;2023-07-31T08:08:03;19.20;99.90
44047;DHT22;29713;-33.888;151.150;2023-07-31T08:10:30;19.10;99.90
44047;DHT22;29713;-33.888;151.150;2023-07-31T08:12:58;19.00;99.90
44047;DHT22;29713;-33.888;151.150;2023-07-31T08:15:25;18.90;99.90
44047;DHT22;29713;-33.888;151.150;2023-07-31T08:17:52;18.90;99.90
44047;DHT22;29713;-33.888;151.150;2023-07-31T08:20:20;18.70;99.90
44047;DHT22;29713;-33.888;151.150;2023-07-31T08:22:47;18.70;99.90
44047;DHT22;29713;-33.888;151.150;2023-07-31T08:25:14;18.50;99.90
44047;DHT22;29713;-33.888;151.150;2023-07-31T08:27:44;18.40;99.90
44047;DHT22;29713;-33.888;151.150;2023-07-31T08:30:13;18.30;99.90
44047;DHT22;29713;-33.888;151.150;2023-07-31T08:32:40;18.30;99.90
44047;DHT22;29713;-33.888;151.150;2023-07-31T08:35:07;18.20;99.90
44047;DHT22;29713;-33.888;151.150;2023-07-31T08:37:35;18.20;99.90
44047;DHT22;29713;-33.888;151.150;2023-07-31T08:40:03;18.10;99.90
44047;DHT22;29713;-33.888;151.150;2023-07-31T08:42:31;18.10;99.90
44047;DHT22;29713;-33.888;151.150;2023-07-31T08:45:00;18.10;99.90
44047;DHT22;29713;-33.888;151.150;2023-07-31T08:47:28;18.10;99.90
44047;DHT22;29713;-33.888;151.150;2023-07-31T08:49:56;18.00;99.90
44047;DHT22;29713;-33.888;151.150;2023-07-31T08:52:24;17.90;99.90
44047;DHT22;29713;-33.888;151.150;2023-07-31T08:54:51;17.70;99.90
44047;DHT22;29713;-33.888;151.150;2023-07-31T08:57:19;17.70;99.90
44047;DHT22;29713;-33.888;151.150;2023-07-31T08:59:46;17.70;99.90
44047;DHT22;29713;-33.888;151.150;2023-07-31T09:02:16;17.70;99.90
44047;DHT22;29713;-33.888;151.150;2023-07-31T09:04:44;17.60;99.90
44047;DHT22;29713;-33.888;151.150;2023-07-31T09:07:13;17.60;99.90
44047;DHT22;29713;-33.888;151.150;2023-07-31T09:09:41;17.50;99.90
44047;DHT22;29713;-33.888;151.150;2023-07-31T09:12:08;17.40;99.90
44047;DHT22;29713;-33.888;151.150;2023-07-31T09:14:36;17.30;99.90
44047;DHT22;29713;-33.888;151.150;2023-07-31T09:17:04;17.20;99.90
44047;DHT22;29713;-33.888;151.150;2023-07-31T09:19:36;17.10;99.90
44047;DHT22;29713;-33.888;151.150;2023-07-31T09:22:05;17.10;99.90
44047;DHT22;29713;-33.888;151.150;2023-07-31T09:24:34;17.00;99.90
44047;DHT22;29713;-33.888;151.150;2023-07-31T09:27:02;16.90;99.90
44047;DHT22;29713;-33.888;151.150;2023-07-31T09:29:30;16.80;99.90
44047;DHT22;29713;-33.888;151.150;2023-07-31T09:31:57;16.80;99.90
44047;DHT22;29713;-33.888;151.150;2023-07-31T09:34:37;16.80;99.90
44047;DHT22;29713;-33.888;151.150;2023-07-31T09:37:06;16.70;99.90
44047;DHT22;29713;-33.888;151.150;2023-07-31T09:39:47;16.60;99.90
44047;DHT22;29713;-33.888;151.150;2023-07-31T09:42:25;16.60;99.90
44047;DHT22;29713;-33.888;151.150;2023-07-31T09:44:53;16.50;99.90
44047;DHT22;29713;-33.888;151.150;2023-07-31T09:47:24;16.50;99.90
44047;DHT22;29713;-33.888;151.150;2023-07-31T09:49:51;16.40;99.90
44047;DHT22;29713;-33.888;151.150;2023-07-31T09:52:19;16.40;99.90
44047;DHT22;29713;-33.888;151.150;2023-07-31T09:54:47;16.30;99.90
44047;DHT22;29713;-33.888;151.150;2023-07-31T09:57:17;16.30;99.90
44047;DHT22;29713;-33.888;151.150;2023-07-31T09:59:49;16.30;99.90
44047;DHT22;29713;-33.888;151.150;2023-07-31T10:02:22;16.40;99.90
44047;DHT22;29713;-33.888;151.150;2023-07-31T10:04:54;16.40;99.90
44047;DHT22;29713;-33.888;151.150;2023-07-31T10:07:25;16.40;99.90
44047;DHT22;29713;-33.888;151.150;2023-07-31T10:09:55;16.40;99.90
44047;DHT22;29713;-33.888;151.150;2023-07-31T10:12:26;16.40;99.90
44047;DHT22;29713;-33.888;151.150;2023-07-31T10:14:57;16.40;99.90
44047;DHT22;29713;-33.888;151.150;2023-07-31T10:17:25;16.40;99.90
44047;DHT22;29713;-33.888;151.150;2023-07-31T10:19:53;16.40;99.90
44047;DHT22;29713;-33.888;151.150;2023-07-31T10:22:22;16.30;99.90
44047;DHT22;29713;-33.888;151.150;2023-07-31T10:24:50;16.20;99.90
44047;DHT22;29713;-33.888;151.150;2023-07-31T10:27:20;16.20;99.90
44047;DHT22;29713;-33.888;151.150;2023-07-31T10:29:48;16.20;99.90
44047;DHT22;29713;-33.888;151.150;2023-07-31T10:32:17;16.20;99.90
44047;DHT22;29713;-33.888;151.150;2023-07-31T10:34:46;16.20;99.90
44047;DHT22;29713;-33.888;151.150;2023-07-31T10:37:22;16.30;99.90
44047;DHT22;29713;-33.888;151.150;2023-07-31T10:40:04;16.40;99.90
44047;DHT22;29713;-33.888;151.150;2023-07-31T10:42:50;16.40;99.90
44047;DHT22;29713;-33.888;151.150;2023-07-31T10:45:33;16.50;99.90
44047;DHT22;29713;-33.888;151.150;2023-07-31T10:48:04;16.60;99.90
44047;DHT22;29713;-33.888;151.150;2023-07-31T10:51:18;16.60;99.90
44047;DHT22;29713;-33.888;151.150;2023-07-31T10:53:33;16.70;99.90
44047;DHT22;29713;-33.888;151.150;2023-07-31T10:56:01;16.70;99.90
44047;DHT22;29713;-33.888;151.150;2023-07-31T10:58:29;16.80;99.90
44047;DHT22;29713;-33.888;151.150;2023-07-31T11:01:02;16.80;99.90
44047;DHT22;29713;-33.888;151.150;2023-07-31T11:03:44;16.80;99.90
44047;DHT22;29713;-33.888;151.150;2023-07-31T11:06:12;16.80;99.90
44047;DHT22;29713;-33.888;151.150;2023-07-31T11:08:50;16.70;99.90
44047;DHT22;29713;-33.888;151.150;2023-07-31T11:11:20;16.70;99.90
44047;DHT22;29713;-33.888;151.150;2023-07-31T11:13:50;16.70;99.90
44047;DHT22;29713;-33.888;151.150;2023-07-31T11:16:23;16.60;99.90
44047;DHT22;29713;-33.888;151.150;2023-07-31T11:18:51;16.50;99.90
44047;DHT22;29713;-33.888;151.150;2023-07-31T11:21:22;16.40;99.90
44047;DHT22;29713;-33.888;151.150;2023-07-31T11:23:56;16.30;99.90
44047;DHT22;29713;-33.888;151.150;2023-07-31T11:26:24;16.30;99.90
44047;DHT22;29713;-33.888;151.150;2023-07-31T11:28:52;16.20;99.90
44047;DHT22;29713;-33.888;151.150;2023-07-31T11:31:22;16.20;99.90
44047;DHT22;29713;-33.888;151.150;2023-07-31T11:33:50;16.20;99.90
44047;DHT22;29713;-33.888;151.150;2023-07-31T11:36:18;16.10;99.90
44047;DHT22;29713;-33.888;151.150;2023-07-31T11:38:46;16.10;99.90
44047;DHT22;29713;-33.888;151.150;2023-07-31T11:41:15;16.00;99.90
44047;DHT22;29713;-33.888;151.150;2023-07-31T11:43:43;16.00;99.90
44047;DHT22;29713;-33.888;151.150;2023-07-31T11:46:10;15.90;99.90
44047;DHT22;29713;-33.888;151.150;2023-07-31T11:48:39;15.80;99.90
44047;DHT22;29713;-33.888;151.150;2023-07-31T11:51:10;15.70;99.90
44047;DHT22;29713;-33.888;151.150;2023-07-31T11:53:52;15.70;99.90
44047;DHT22;29713;-33.888;151.150;2023-07-31T11:56:21;15.60;99.90
44047;DHT22;29713;-33.888;151.150;2023-07-31T11:58:59;15.60;99.90
44047;DHT22;29713;-33.888;151.150;2023-07-31T12:01:32;15.50;99.90
44047;DHT22;29713;-33.888;151.150;2023-07-31T12:04:00;15.40;99.90
44047;DHT22;29713;-33.888;151.150;2023-07-31T12:06:34;15.40;99.90
44047;DHT22;29713;-33.888;151.150;2023-07-31T12:09:05;15.40;99.90
44047;DHT22;29713;-33.888;151.150;2023-07-31T12:11:44;15.40;99.90
44047;DHT22;29713;-33.888;151.150;2023-07-31T12:14:22;15.50;99.90
44047;DHT22;29713;-33.888;151.150;2023-07-31T12:17:06;15.40;99.90
44047;DHT22;29713;-33.888;151.150;2023-07-31T12:19:34;15.50;99.90
44047;DHT22;29713;-33.888;151.150;2023-07-31T12:22:01;15.40;99.90
44047;DHT22;29713;-33.888;151.150;2023-07-31T12:24:29;15.50;99.90
44047;DHT22;29713;-33.888;151.150;2023-07-31T12:26:56;15.40;99.90
44047;DHT22;29713;-33.888;151.150;2023-07-31T12:29:23;15.50;99.90
44047;DHT22;29713;-33.888;151.150;2023-07-31T12:32:01;15.50;99.90
44047;DHT22;29713;-33.888;151.150;2023-07-31T12:34:28;15.50;99.90
44047;DHT22;29713;-33.888;151.150;2023-07-31T12:36:59;15.50;99.90
44047;DHT22;29713;-33.888;151.150;2023-07-31T12:39:26;15.50;99.90
44047;DHT22;29713;-33.888;151.150;2023-07-31T12:41:53;15.50;99.90
44047;DHT22;29713;-33.888;151.150;2023-07-31T12:44:21;15.40;99.90
44047;DHT22;29713;-33.888;151.150;2023-07-31T12:46:48;15.40;99.90
44047;DHT22;29713;-33.888;151.150;2023-07-31T12:49:15;15.30;99.90
44047;DHT22;29713;-33.888;151.150;2023-07-31T12:51:43;15.30;99.90
44047;DHT22;29713;-33.888;151.150;2023-07-31T12:54:13;15.20;99.90
44047;DHT22;29713;-33.888;151.150;2023-07-31T12:56:41;15.10;99.90
44047;DHT22;29713;-33.888;151.150;2023-07-31T12:59:08;15.00;99.90
44047;DHT22;29713;-33.888;151.150;2023-07-31T13:01:35;15.00;99.90
44047;DHT22;29713;-33.888;151.150;2023-07-31T13:04:03;15.00;99.90
44047;DHT22;29713;-33.888;151.150;2023-07-31T13:06:30;14.90;99.90
44047;DHT22;29713;-33.888;151.150;2023-07-31T13:08:59;14.90;99.90
44047;DHT22;29713;-33.888;151.150;2023-07-31T13:11:26;14.90;99.90
44047;DHT22;29713;-33.888;151.150;2023-07-31T13:13:54;14.90;99.90
44047;DHT22;29713;-33.888;151.150;2023-07-31T13:16:21;14.90;99.90
44047;DHT22;29713;-33.888;151.150;2023-07-31T13:18:48;14.90;99.90
44047;DHT22;29713;-33.888;151.150;2023-07-31T13:21:18;14.80;99.90
44047;DHT22;29713;-33.888;151.150;2023-07-31T13:23:45;14.80;99.90
44047;DHT22;29713;-33.888;151.150;2023-07-31T13:26:12;14.80;99.90
44047;DHT22;29713;-33.888;151.150;2023-07-31T13:28:40;14.70;99.90
44047;DHT22;29713;-33.888;151.150;2023-07-31T13:31:07;14.70;99.90
44047;DHT22;29713;-33.888;151.150;2023-07-31T13:33:34;14.70;99.90
44047;DHT22;29713;-33.888;151.150;2023-07-31T13:36:02;14.70;99.90
44047;DHT22;29713;-33.888;151.150;2023-07-31T13:38:29;14.60;99.90
44047;DHT22;29713;-33.888;151.150;2023-07-31T13:40:56;14.50;99.90
44047;DHT22;29713;-33.888;151.150;2023-07-31T13:43:24;14.50;99.90
44047;DHT22;29713;-33.888;151.150;2023-07-31T13:45:51;14.50;99.90
44047;DHT22;29713;-33.888;151.150;2023-07-31T13:48:19;14.40;99.90
44047;DHT22;29713;-33.888;151.150;2023-07-31T13:50:46;14.40;99.90
44047;DHT22;29713;-33.888;151.150;2023-07-31T13:53:13;14.30;99.90
44047;DHT22;29713;-33.888;151.150;2023-07-31T13:55:41;14.20;99.90
44047;DHT22;29713;-33.888;151.150;2023-07-31T13:58:11;14.20;99.90
44047;DHT22;29713;-33.888;151.150;2023-07-31T14:00:39;14.20;99.90
44047;DHT22;29713;-33.888;151.150;2023-07-31T14:03:06;14.20;99.90
44047;DHT22;29713;-33.888;151.150;2023-07-31T14:05:33;14.20;99.90
44047;DHT22;29713;-33.888;151.150;2023-07-31T14:08:01;14.20;99.90
44047;DHT22;29713;-33.888;151.150;2023-07-31T14:10:28;14.20;99.90
44047;DHT22;29713;-33.888;151.150;2023-07-31T14:12:55;14.10;99.90
44047;DHT22;29713;-33.888;151.150;2023-07-31T14:15:23;14.00;99.90
44047;DHT22;29713;-33.888;151.150;2023-07-31T14:17:50;14.10;99.90
44047;DHT22;29713;-33.888;151.150;2023-07-31T14:20:18;14.10;99.90
44047;DHT22;29713;-33.888;151.150;2023-07-31T14:22:45;14.10;99.90
44047;DHT22;29713;-33.888;151.150;2023-07-31T14:25:12;14.10;99.90
44047;DHT22;29713;-33.888;151.150;2023-07-31T14:27:40;14.10;99.90
44047;DHT22;29713;-33.888;151.150;2023-07-31T14:30:08;14.10;99.90
44047;DHT22;29713;-33.888;151.150;2023-07-31T14:32:35;14.00;99.90
44047;DHT22;29713;-33.888;151.150;2023-07-31T14:35:04;14.10;99.90
44047;DHT22;29713;-33.888;151.150;2023-07-31T14:37:41;14.00;99.90
44047;DHT22;29713;-33.888;151.150;2023-07-31T14:40:10;14.00;99.90
44047;DHT22;29713;-33.888;151.150;2023-07-31T14:42:38;13.90;99.90
44047;DHT22;29713;-33.888;151.150;2023-07-31T14:45:07;13.80;99.90
44047;DHT22;29713;-33.888;151.150;2023-07-31T14:47:34;13.80;99.90
44047;DHT22;29713;-33.888;151.150;2023-07-31T14:50:02;13.80;99.90
44047;DHT22;29713;-33.888;151.150;2023-07-31T14:52:29;13.80;99.90
44047;DHT22;29713;-33.888;151.150;2023-07-31T14:54:57;13.80;99.90
44047;DHT22;29713;-33.888;151.150;2023-07-31T14:57:24;13.80;99.90
44047;DHT22;29713;-33.888;151.150;2023-07-31T14:59:52;13.80;99.90
44047;DHT22;29713;-33.888;151.150;2023-07-31T15:02:19;13.60;99.90